Weather at Logan International Airport

Public forecast

Using degrees Fahrenheit for public forecast. Weather courtesy of forecast.io.

Current aviation weather report (METAR) for Logan International Airport

Retrieved 2021/07/28 12:54 UTC (8 minutes ago):

KBOS 281254Z 02011KT 10SM FEW009 OVC027 19/16 A3000 RMK AO2 SLP159 T01940161

Aviation forecast (TAF) for Logan International Airport

Retrieved 2021/07/28 12:42 UTC (20 minutes ago):

TAF KBOS 281136Z 2812/2918 04007KT P6SM VCSH FEW017 OVC030 FM281400 04008KT P6SM BKN020 FM281600 05009KT P6SM BKN025 FM281700 06008KT P6SM SCT040 FM290100 15005KT P6SM FEW120